Time;durP1;ratioP1;P1;durP2;ratioP2;P2;SDS_P1;SDS_P2;PMS_P1;PMS_P2;Temp;Humidity;BMP_temperature;BMP_pressure;BME280_temperature;BME280_humidity;BME280_pressure;Samples;Min_cycle;Max_cycle;Signal;HPM_P1;HPM_P2
2023/10/12 00:00:42;;;;;;;18.80;7.15;;;17.00;99.90;;;;;;5093602;28;20391;-75
2023/10/12 00:03:12;;;;;;;22.77;7.53;;;16.90;99.90;;;;;;5074783;28;20031;-75
2023/10/12 00:05:38;;;;;;;17.63;7.35;;;16.90;99.90;;;;;;5093217;28;20169;-75
2023/10/12 00:08:10;;;;;;;18.15;7.65;;;17.00;99.90;;;;;;5093462;28;20113;-75
2023/10/12 00:10:44;;;;;;;18.80;7.85;;;17.00;99.90;;;;;;5074852;28;20057;-75
2023/10/12 00:13:13;;;;;;;22.45;8.35;;;17.00;99.90;;;;;;5092978;28;20475;-75
2023/10/12 00:15:45;;;;;;;20.10;8.18;;;17.00;99.90;;;;;;5074628;28;20027;-75
2023/10/12 00:18:13;;;;;;;16.83;7.35;;;16.90;99.90;;;;;;5093354;28;20483;-75
2023/10/12 00:20:39;;;;;;;21.65;9.07;;;17.00;99.90;;;;;;5092886;28;20020;-75
2023/10/12 00:23:15;;;;;;;24.83;8.95;;;17.00;99.90;;;;;;5092780;28;20102;-75
2023/10/12 00:25:54;;;;;;;16.98;7.82;;;16.90;99.90;;;;;;5074714;28;20016;-75
2023/10/12 00:28:21;;;;;;;21.40;8.00;;;16.90;99.90;;;;;;5074609;28;20035;-75
2023/10/12 00:30:49;;;;;;;21.40;8.05;;;16.90;99.90;;;;;;5074931;28;20027;-77
2023/10/12 00:33:17;;;;;;;21.08;8.40;;;16.90;99.90;;;;;;5092823;28;20016;-78
2023/10/12 00:35:48;;;;;;;22.67;8.47;;;17.00;99.90;;;;;;5092996;28;20103;-78
2023/10/12 00:38:23;;;;;;;17.98;8.27;;;17.40;99.90;;;;;;5093843;28;20024;-78
2023/10/12 00:40:55;;;;;;;21.88;8.05;;;17.00;99.90;;;;;;5075016;28;20093;-77
2023/10/12 00:43:21;;;;;;;17.08;7.68;;;17.00;99.90;;;;;;5092688;28;20020;-78
2023/10/12 00:45:47;;;;;;;19.05;8.30;;;17.10;99.90;;;;;;5074558;28;20429;-78
2023/10/12 00:48:16;;;;;;;15.68;7.00;;;17.00;99.90;;;;;;5074857;28;20028;-78
2023/10/12 00:50:44;;;;;;;14.75;6.15;;;17.00;99.90;;;;;;5092731;28;20024;-77
2023/10/12 00:55:46;;;;;;;19.85;7.10;;;16.90;99.90;;;;;;5054741;28;1109954;-78
2023/10/12 00:58:14;;;;;;;14.38;5.95;;;16.90;99.90;;;;;;5093819;28;20016;-77
2023/10/12 01:00:45;;;;;;;17.20;6.53;;;17.80;99.90;;;;;;5094374;28;20045;-77
2023/10/12 01:08:36;;;;;;;16.77;5.25;;;16.90;99.90;;;;;;5094434;28;20035;-77
2023/10/12 01:11:07;;;;;;;19.48;6.32;;;16.90;99.90;;;;;;5075174;28;20046;-78
2023/10/12 01:13:33;;;;;;;20.17;6.15;;;16.80;99.90;;;;;;5074971;28;20043;-78
2023/10/12 01:16:11;;;;;;;16.33;5.57;;;16.80;99.90;;;;;;5074817;28;20024;-78
2023/10/12 01:18:38;;;;;;;12.45;4.22;;;17.40;99.90;;;;;;5093470;28;20474;-77
2023/10/12 01:21:03;;;;;;;20.45;3.70;;;16.70;99.90;;;;;;5093491;28;20483;-77
2023/10/12 01:23:30;;;;;;;13.20;4.10;;;16.70;99.90;;;;;;5093424;28;20024;-78
2023/10/12 01:26:10;;;;;;;11.40;3.08;;;16.70;99.90;;;;;;5075140;28;20020;-78
2023/10/12 01:28:35;;;;;;;8.85;3.35;;;16.50;99.90;;;;;;5075051;28;20421;-78
2023/10/12 01:31:03;;;;;;;11.07;3.00;;;16.50;99.90;;;;;;5093701;28;20099;-77
2023/10/12 01:33:28;;;;;;;13.27;2.78;;;16.50;99.90;;;;;;5093108;28;20016;-77
2023/10/12 01:35:56;;;;;;;15.85;3.25;;;16.50;99.90;;;;;;5074860;28;20030;-77
2023/10/12 01:38:22;;;;;;;10.70;2.67;;;16.40;99.90;;;;;;5074801;28;20114;-77
2023/10/12 01:40:55;;;;;;;10.75;2.67;;;16.40;99.90;;;;;;5093181;28;20427;-77
2023/10/12 01:43:20;;;;;;;12.38;2.50;;;16.30;99.90;;;;;;5074867;28;20031;-77
2023/10/12 01:46:08;;;;;;;11.80;2.20;;;16.30;99.90;;;;;;5074856;28;20032;-77
2023/10/12 01:48:34;;;;;;;9.95;2.22;;;16.20;99.90;;;;;;5092909;28;20021;-77
2023/10/12 01:51:14;;;;;;;10.13;1.58;;;16.20;99.90;;;;;;5092896;28;20044;-78
2023/10/12 01:53:40;;;;;;;4.10;1.48;;;16.20;99.90;;;;;;5093251;28;20127;-77
2023/10/12 01:56:10;;;;;;;7.40;1.25;;;16.20;99.90;;;;;;5092543;28;20034;-78
2023/10/12 01:58:38;;;;;;;5.80;1.42;;;16.20;99.90;;;;;;5093072;28;20020;-77
2023/10/12 02:01:07;;;;;;;5.30;1.05;;;16.20;99.90;;;;;;5092701;28;20034;-78
2023/10/12 02:03:42;;;;;;;3.65;0.95;;;17.00;99.90;;;;;;5092924;28;20391;-78
2023/10/12 02:06:16;;;;;;;6.80;1.23;;;16.20;99.90;;;;;;5077811;28;20111;-78
2023/10/12 02:08:46;;;;;;;4.60;0.77;;;16.20;99.90;;;;;;5078428;28;20058;-78
2023/10/12 02:13:54;;;;;;;3.63;1.10;;;16.10;99.90;;;;;;5096763;28;20112;-78
2023/10/12 02:16:25;;;;;;;6.78;0.82;;;16.10;99.90;;;;;;5096666;28;20107;-78
2023/10/12 02:18:53;;;;;;;6.32;0.77;;;16.10;99.90;;;;;;5097256;28;20028;-78
2023/10/12 02:21:25;;;;;;;2.08;0.52;;;16.10;99.90;;;;;;5096556;28;20024;-78
2023/10/12 02:23:56;;;;;;;2.47;0.20;;;16.10;99.90;;;;;;5096436;28;20408;-78
2023/10/12 02:26:36;;;;;;;2.97;0.47;;;16.10;99.90;;;;;;5096662;28;20031;-78
2023/10/12 02:34:27;;;;;;;5.97;0.43;;;16.00;99.90;;;;;;5096371;28;20526;-78
2023/10/12 02:37:00;;;;;;;3.53;0.93;;;15.90;99.90;;;;;;5096593;28;20024;-78
2023/10/12 02:39:43;;;;;;;3.22;0.32;;;16.00;99.90;;;;;;5096855;28;20027;-78
2023/10/12 02:47:23;;;;;;;1.42;0.00;;;15.90;99.90;;;;;;5096493;28;20035;-78
2023/10/12 02:49:49;;;;;;;0.63;0.00;;;15.90;99.90;;;;;;5096112;28;20055;-78
2023/10/12 02:52:16;;;;;;;0.20;0.00;;;15.90;99.90;;;;;;5096387;28;20055;-78
2023/10/12 02:54:52;;;;;;;2.15;0.40;;;15.80;99.90;;;;;;5095800;28;20502;-78
2023/10/12 02:57:24;;;;;;;0.00;0.00;;;15.80;99.90;;;;;;5096600;28;20020;-78
2023/10/12 03:00:21;;;;;;;1.65;0.10;;;15.70;99.90;;;;;;5078273;28;20472;-78
2023/10/12 03:02:48;;;;;;;1.60;0.00;;;15.70;99.90;;;;;;5096151;28;20042;-78
2023/10/12 03:05:17;;;;;;;1.08;0.00;;;15.70;99.90;;;;;;5077591;28;20080;-78
2023/10/12 03:07:44;;;;;;;2.45;0.00;;;15.60;99.90;;;;;;5077744;28;20380;-78
2023/10/12 03:10:26;;;;;;;0.75;0.00;;;15.60;99.90;;;;;;5095732;28;20043;-78
2023/10/12 03:12:55;;;;;;;1.02;0.00;;;15.60;99.90;;;;;;5096339;28;20028;-77
2023/10/12 03:15:56;;;;;;;0.60;0.10;;;15.50;99.90;;;;;;5077229;28;20020;-77
2023/10/12 03:18:26;;;;;;;1.85;0.00;;;15.50;99.90;;;;;;5077287;28;20020;-78
2023/10/12 03:21:02;;;;;;;1.77;0.00;;;15.40;99.90;;;;;;5077382;28;20024;-78
2023/10/12 03:23:29;;;;;;;0.00;0.00;;;15.40;99.90;;;;;;5077278;28;20054;-77
2023/10/12 03:25:54;;;;;;;0.13;0.10;;;15.40;99.90;;;;;;5077138;28;20024;-78
2023/10/12 03:33:55;;;;;;;1.73;0.28;;;15.30;99.90;;;;;;5096371;28;20038;-78
2023/10/12 03:36:32;;;;;;;0.00;0.00;;;15.30;99.90;;;;;;5077623;28;20474;-78
2023/10/12 03:47:14;;;;;;;0.10;0.00;;;15.30;99.90;;;;;;5095619;28;20062;-78
2023/10/12 03:49:57;;;;;;;0.88;0.00;;;15.30;99.90;;;;;;5095005;28;20518;-77
2023/10/12 03:52:29;;;;;;;0.88;0.00;;;15.20;99.90;;;;;;5094692;28;20450;-77
2023/10/12 04:02:47;;;;;;;0.00;0.00;;;15.10;99.90;;;;;;5095075;28;20122;-78
2023/10/12 04:05:17;;;;;;;0.13;0.10;;;15.10;99.90;;;;;;5095122;28;20073;-78
2023/10/12 04:13:09;;;;;;;0.65;0.00;;;15.00;99.90;;;;;;5094785;28;20028;-77
2023/10/12 04:16:05;;;;;;;0.00;0.00;;;15.00;99.90;;;;;;5076073;28;20020;-77
2023/10/12 04:18:28;;;;;;;0.15;0.00;;;14.90;99.90;;;;;;5094129;28;20031;-78
2023/10/12 04:20:58;;;;;;;0.00;0.00;;;14.90;99.90;;;;;;5076293;28;20023;-78
2023/10/12 04:28:50;;;;;;;1.60;0.00;;;14.90;99.90;;;;;;5094141;28;20046;-76
2023/10/12 04:31:49;;;;;;;0.32;0.00;;;14.80;99.90;;;;;;5075713;28;20016;-76
2023/10/12 04:34:08;;;;;;;0.15;0.00;;;14.90;99.90;;;;;;5089498;28;20563;-76
2023/10/12 04:41:41;;;;;;;0.43;0.00;;;14.80;99.90;;;;;;5094055;28;20035;-76
2023/10/12 04:46:59;;;;;;;0.22;0.08;;;14.80;99.90;;;;;;5093712;28;20051;-76
2023/10/12 04:54:36;;;;;;;0.20;0.00;;;14.80;99.90;;;;;;5093493;28;20145;-76
2023/10/12 04:59:42;;;;;;;1.58;0.00;;;14.70;99.90;;;;;;5093506;28;20115;-76
2023/10/12 05:04:38;;;;;;;1.05;0.00;;;14.70;99.90;;;;;;5093299;28;20085;-75
2023/10/12 05:07:53;;;;;;;0.52;0.00;;;14.60;99.90;;;;;;5093862;28;20047;-75
2023/10/12 05:09:56;;;;;;;1.35;0.00;;;14.60;99.90;;;;;;5088620;28;20081;-75
2023/10/12 05:12:25;;;;;;;1.00;0.00;;;14.70;99.90;;;;;;5093524;28;20020;-76
2023/10/12 05:14:55;;;;;;;0.20;0.00;;;14.60;99.90;;;;;;5074896;28;20030;-76
2023/10/12 05:17:24;;;;;;;1.10;0.00;;;14.60;99.90;;;;;;5093331;28;20020;-76
2023/10/12 05:19:52;;;;;;;0.47;0.00;;;14.50;99.90;;;;;;5093152;28;20020;-76
2023/10/12 05:22:21;;;;;;;0.08;0.00;;;14.60;99.90;;;;;;5093104;28;20027;-76
2023/10/12 05:24:46;;;;;;;0.68;0.00;;;14.50;99.90;;;;;;5074755;28;20039;-76
2023/10/12 05:27:39;;;;;;;1.75;0.00;;;14.50;99.90;;;;;;5074977;28;20036;-76
2023/10/12 05:30:16;;;;;;;1.45;0.00;;;14.40;99.90;;;;;;5092959;28;20024;-76
2023/10/12 05:32:48;;;;;;;0.43;0.10;;;14.40;99.90;;;;;;5092970;28;20048;-76
2023/10/12 05:35:15;;;;;;;0.00;0.00;;;14.40;99.90;;;;;;5074934;28;20032;-76
2023/10/12 05:37:51;;;;;;;0.30;0.00;;;14.40;99.90;;;;;;5075181;28;20497;-76
2023/10/12 05:40:17;;;;;;;1.02;0.03;;;14.40;99.90;;;;;;5076759;28;20107;-75
2023/10/12 05:42:46;;;;;;;0.68;0.00;;;14.30;99.90;;;;;;5097322;28;20071;-76
2023/10/12 05:45:22;;;;;;;0.40;0.28;;;14.30;99.90;;;;;;5096641;28;20027;-76
2023/10/12 05:47:53;;;;;;;1.08;0.32;;;14.30;99.90;;;;;;5097058;28;20111;-76
2023/10/12 05:50:24;;;;;;;1.20;0.10;;;14.30;99.90;;;;;;5097143;28;20020;-76
2023/10/12 05:52:59;;;;;;;0.00;0.00;;;14.30;99.90;;;;;;5096723;28;20028;-76
2023/10/12 05:55:25;;;;;;;0.00;0.00;;;14.30;99.90;;;;;;5078232;28;20090;-76
2023/10/12 05:57:50;;;;;;;0.63;0.00;;;14.20;99.90;;;;;;5096412;28;20024;-76
2023/10/12 06:00:35;;;;;;;0.60;0.00;;;14.20;99.90;;;;;;5096590;28;20395;-77
2023/10/12 06:03:12;;;;;;;1.33;0.17;;;14.20;99.90;;;;;;5078369;28;20024;-76
2023/10/12 06:05:38;;;;;;;0.30;0.00;;;14.20;99.90;;;;;;5078041;28;20021;-76
2023/10/12 06:08:04;;;;;;;1.23;0.00;;;14.20;99.90;;;;;;5078131;28;20038;-76
2023/10/12 06:10:31;;;;;;;2.33;0.00;;;14.10;99.90;;;;;;5095474;28;20123;-76
2023/10/12 06:12:58;;;;;;;0.70;0.05;;;14.10;99.90;;;;;;5076485;28;20061;-76
2023/10/12 06:15:28;;;;;;;1.08;0.03;;;14.50;99.90;;;;;;5076498;28;20111;-76
2023/10/12 06:17:58;;;;;;;0.05;0.05;;;14.10;99.90;;;;;;5096173;28;20031;-76
2023/10/12 06:20:30;;;;;;;2.35;0.00;;;14.00;99.90;;;;;;5094967;28;20024;-76
2023/10/12 06:22:56;;;;;;;1.48;0.00;;;14.00;99.90;;;;;;5077865;28;20085;-76
2023/10/12 06:25:23;;;;;;;2.47;0.00;;;14.30;99.90;;;;;;5096050;28;20024;-76
2023/10/12 06:27:49;;;;;;;0.47;0.00;;;13.90;99.90;;;;;;5095822;28;20044;-76
2023/10/12 06:30:18;;;;;;;0.82;0.00;;;13.90;99.90;;;;;;5095759;28;20047;-77
2023/10/12 06:32:47;;;;;;;0.98;0.00;;;13.90;99.90;;;;;;5077644;28;20024;-76
2023/10/12 06:35:23;;;;;;;0.28;0.00;;;13.90;99.90;;;;;;5078213;28;20085;-76
2023/10/12 06:37:49;;;;;;;0.70;0.00;;;14.00;99.90;;;;;;5095696;28;20020;-76
2023/10/12 06:43:57;;;;;;;1.23;0.00;;;14.10;99.90;;;;;;5095944;28;20454;-76
2023/10/12 06:45:48;;;;;;;3.65;0.00;;;14.00;99.90;;;;;;5095144;28;20032;-76
2023/10/12 06:51:11;;;;;;;1.60;0.00;;;14.00;99.90;;;;;;5096133;28;20035;-76
2023/10/12 06:53:38;;;;;;;0.55;0.00;;;14.00;99.90;;;;;;5095392;28;20471;-76
2023/10/12 06:59:07;;;;;;;1.55;0.38;;;14.30;99.90;;;;;;5095387;28;20408;-76
2023/10/12 07:04:17;;;;;;;2.30;0.47;;;14.00;99.90;;;;;;5096008;28;20087;-76
2023/10/12 07:06:57;;;;;;;1.13;0.38;;;14.10;99.90;;;;;;5076999;28;20016;-76
2023/10/12 07:09:39;;;;;;;1.55;0.03;;;14.10;99.90;;;;;;5095078;28;20071;-76
2023/10/12 07:12:12;;;;;;;1.45;0.00;;;14.10;99.90;;;;;;5078242;28;20025;-78
2023/10/12 07:14:43;;;;;;;0.22;0.00;;;14.10;99.90;;;;;;5078385;28;20062;-78
2023/10/12 07:17:08;;;;;;;2.13;0.20;;;14.10;99.90;;;;;;5079456;28;20058;-78
2023/10/12 07:19:46;;;;;;;1.30;0.00;;;14.10;99.90;;;;;;5097464;28;20024;-78
2023/10/12 07:22:15;;;;;;;1.55;0.00;;;14.10;99.90;;;;;;5079324;28;20055;-78
2023/10/12 07:24:42;;;;;;;0.20;0.00;;;14.10;99.90;;;;;;5097092;28;20065;-78
2023/10/12 07:27:21;;;;;;;1.50;0.10;;;14.10;99.90;;;;;;5079644;28;20016;-78
2023/10/12 07:29:51;;;;;;;1.60;0.22;;;14.10;99.90;;;;;;5078782;28;20040;-79
2023/10/12 07:34:53;;;;;;;2.83;0.30;;;14.10;99.90;;;;;;5097845;28;20032;-78
2023/10/12 07:37:19;;;;;;;2.63;0.50;;;14.10;99.90;;;;;;5079281;28;20031;-78
2023/10/12 07:39:45;;;;;;;2.63;0.10;;;14.10;99.90;;;;;;5097466;28;20471;-78
2023/10/12 07:42:24;;;;;;;1.35;0.20;;;15.80;99.90;;;;;;5097402;28;20024;-78
2023/10/12 07:44:59;;;;;;;0.45;0.10;;;14.10;99.90;;;;;;5078496;28;20027;-79
2023/10/12 07:47:31;;;;;;;1.38;0.03;;;14.10;99.90;;;;;;5078967;28;20434;-79
2023/10/12 07:50:06;;;;;;;0.65;0.20;;;14.10;99.90;;;;;;5078636;28;20023;-78
2023/10/12 07:52:39;;;;;;;1.83;0.20;;;14.20;99.90;;;;;;5097635;28;20429;-78
2023/10/12 07:55:17;;;;;;;3.15;0.38;;;14.10;99.90;;;;;;5079002;28;20123;-78
2023/10/12 07:57:44;;;;;;;;;;;14.10;99.90;;;;;;5096822;28;20023;-78
2023/10/12 08:21:31;;;;;;;1.10;0.00;;;14.30;99.90;;;;;;5096662;28;20034;-78
2023/10/12 08:24:09;;;;;;;0.88;0.00;;;14.30;99.90;;;;;;5077510;28;20023;-79
2023/10/12 08:29:09;;;;;;;1.48;0.20;;;14.30;99.90;;;;;;5096339;28;20036;-79
2023/10/12 08:31:44;;;;;;;3.22;0.10;;;14.30;99.90;;;;;;5077821;28;20012;-79
2023/10/12 08:39:50;;;;;;;0.65;0.00;;;14.30;99.90;;;;;;5096497;28;20114;-78
2023/10/12 08:44:51;;;;;;;0.98;0.08;;;14.60;99.90;;;;;;5096064;28;20507;-79
2023/10/12 08:47:25;;;;;;;0.00;0.00;;;15.20;99.90;;;;;;5095774;28;20024;-78
2023/10/12 08:50:02;;;;;;;1.10;0.20;;;14.60;99.90;;;;;;5078352;28;20472;-78
2023/10/12 08:52:29;;;;;;;2.10;0.00;;;14.70;99.90;;;;;;5077393;28;20019;-79
2023/10/12 08:54:58;;;;;;;2.40;0.00;;;14.60;99.90;;;;;;5095147;28;20032;-78
2023/10/12 08:57:44;;;;;;;0.43;0.10;;;14.70;99.90;;;;;;5077447;28;20058;-78
2023/10/12 09:00:39;;;;;;;1.17;0.17;;;14.60;99.90;;;;;;5095186;28;20020;-78
2023/10/12 09:03:24;;;;;;;0.00;0.00;;;14.60;99.90;;;;;;5095373;28;20028;-78
2023/10/12 09:05:54;;;;;;;0.00;0.00;;;14.70;99.90;;;;;;5075649;28;20395;-77
2023/10/12 09:10:52;;;;;;;;;;;14.60;99.90;;;;;;5094032;28;20063;-77
2023/10/12 09:13:17;;;;;;;;;;;14.60;99.90;;;;;;5093664;28;19904;-77
2023/10/12 09:15:45;;;;;;;1.55;0.00;;;14.60;99.90;;;;;;5096428;28;19994;-77
2023/10/12 09:18:19;;;;;;;0.10;0.00;;;14.60;99.90;;;;;;5097358;28;20104;-77
2023/10/12 09:23:46;;;;;;;0.90;0.00;;;14.60;99.90;;;;;;5097488;28;20391;-77
2023/10/12 09:26:25;;;;;;;1.65;0.00;;;14.60;99.90;;;;;;5079013;28;20035;-77
2023/10/12 09:29:06;;;;;;;0.63;0.00;;;14.60;99.90;;;;;;5097237;28;20103;-77
2023/10/12 09:36:43;;;;;;;0.32;0.05;;;14.60;99.90;;;;;;5097268;28;20118;-77
2023/10/12 09:39:24;;;;;;;0.10;0.10;;;14.60;99.90;;;;;;5078620;28;20028;-77
2023/10/12 09:41:59;;;;;;;1.30;0.00;;;14.70;99.90;;;;;;5097576;28;20020;-77
2023/10/12 09:44:27;;;;;;;0.10;0.00;;;14.70;99.90;;;;;;5097337;28;20052;-77
2023/10/12 09:46:56;;;;;;;0.45;0.00;;;14.70;99.90;;;;;;5096637;28;20031;-77
2023/10/12 09:49:27;;;;;;;0.20;0.10;;;14.80;99.90;;;;;;5096780;28;20074;-77
2023/10/12 09:51:55;;;;;;;0.35;0.00;;;14.80;99.90;;;;;;5096673;28;20018;-77
2023/10/12 09:54:33;;;;;;;0.30;0.10;;;14.80;99.90;;;;;;5096997;28;20024;-77
2023/10/12 09:57:04;;;;;;;0.68;0.20;;;14.80;99.90;;;;;;5096829;28;20040;-77
2023/10/12 09:59:32;;;;;;;0.28;0.00;;;14.90;99.90;;;;;;5097236;28;20061;-77
2023/10/12 10:02:04;;;;;;;0.65;0.20;;;14.90;99.90;;;;;;5096779;28;20107;-77
2023/10/12 10:04:34;;;;;;;2.60;0.10;;;15.00;99.90;;;;;;5078122;28;20115;-77
2023/10/12 10:07:17;;;;;;;0.47;0.22;;;14.90;99.90;;;;;;5096302;28;20032;-77
2023/10/12 10:09:49;;;;;;;1.17;0.10;;;14.90;99.90;;;;;;5096849;28;20016;-77
2023/10/12 10:12:20;;;;;;;0.70;0.20;;;15.20;99.90;;;;;;5096224;28;20024;-76
2023/10/12 10:14:52;;;;;;;0.50;0.25;;;14.90;99.90;;;;;;5096155;28;20031;-77
2023/10/12 10:17:47;;;;;;;0.22;0.22;;;14.90;99.90;;;;;;5096297;28;20020;-77
2023/10/12 10:22:59;;;;;;;2.42;0.10;;;15.00;99.90;;;;;;5096819;28;20032;-77
2023/10/12 10:25:47;;;;;;;0.20;0.10;;;15.00;99.90;;;;;;5095821;28;20028;-77
2023/10/12 10:28:18;;;;;;;1.03;0.00;;;15.00;99.90;;;;;;5096981;28;20027;-78
2023/10/12 10:30:50;;;;;;;0.52;0.10;;;15.00;99.90;;;;;;5096593;28;20020;-77
2023/10/12 10:33:23;;;;;;;2.28;0.25;;;15.00;99.90;;;;;;5078096;28;20016;-77
2023/10/12 10:35:59;;;;;;;2.28;0.10;;;15.00;99.90;;;;;;5095894;28;20023;-77
2023/10/12 10:38:32;;;;;;;2.67;0.20;;;15.00;99.90;;;;;;5095974;28;20162;-77
2023/10/12 10:41:07;;;;;;;2.33;0.47;;;15.00;99.90;;;;;;5077787;28;20615;-77
2023/10/12 10:43:37;;;;;;;0.65;0.45;;;15.00;99.90;;;;;;5077668;28;20111;-77
2023/10/12 10:46:09;;;;;;;0.45;0.25;;;15.10;99.90;;;;;;5095715;28;20056;-77
2023/10/12 10:48:39;;;;;;;0.43;0.20;;;15.20;99.90;;;;;;5097105;28;20021;-79
2023/10/12 10:51:11;;;;;;;0.65;0.20;;;15.60;99.90;;;;;;5096336;28;20024;-78
2023/10/12 10:53:40;;;;;;;1.35;0.25;;;15.20;99.90;;;;;;5099029;28;20086;-78
2023/10/12 10:56:13;;;;;;;0.55;0.38;;;15.20;99.90;;;;;;5081748;28;20031;-78
2023/10/12 10:58:46;;;;;;;0.30;0.13;;;15.30;99.90;;;;;;5081652;28;20027;-78
2023/10/12 11:01:15;;;;;;;1.20;0.43;;;15.30;99.90;;;;;;5099739;28;20020;-78
2023/10/12 11:03:43;;;;;;;0.80;0.00;;;15.30;99.90;;;;;;5081839;28;20069;-78
2023/10/12 11:06:21;;;;;;;0.93;0.32;;;16.00;99.90;;;;;;5081664;28;20391;-78
2023/10/12 11:09:00;;;;;;;0.20;0.10;;;15.30;99.90;;;;;;5100792;28;20058;-78
2023/10/12 11:11:27;;;;;;;3.30;0.35;;;15.40;99.90;;;;;;5100969;28;20027;-78
2023/10/12 11:13:55;;;;;;;1.00;0.20;;;15.50;99.90;;;;;;5082014;28;20020;-78
2023/10/12 11:16:21;;;;;;;0.50;0.20;;;15.40;99.90;;;;;;5100154;28;20031;-78
2023/10/12 11:18:51;;;;;;;2.25;0.25;;;15.30;99.90;;;;;;5100576;28;20024;-78
2023/10/12 11:21:18;;;;;;;1.02;0.17;;;15.30;99.90;;;;;;5101048;28;20028;-78
2023/10/12 11:23:44;;;;;;;1.55;0.50;;;15.30;99.90;;;;;;5099941;28;20028;-78
2023/10/12 11:26:21;;;;;;;1.83;0.32;;;15.30;99.90;;;;;;5082324;28;20028;-78
2023/10/12 11:29:00;;;;;;;1.85;0.30;;;15.60;99.90;;;;;;5082611;28;20016;-78
2023/10/12 11:31:31;;;;;;;2.17;0.88;;;15.20;99.90;;;;;;5081814;28;20061;-79
2023/10/12 11:33:59;;;;;;;2.33;1.15;;;15.20;99.90;;;;;;5100030;28;20448;-78
2023/10/12 11:36:27;;;;;;;1.42;0.55;;;15.10;99.90;;;;;;5082026;28;20415;-78
2023/10/12 11:39:28;;;;;;;0.60;0.28;;;15.10;99.90;;;;;;5098696;28;20027;-78
2023/10/12 11:42:07;;;;;;;2.17;0.52;;;15.10;99.90;;;;;;5086431;28;20035;-78
2023/10/12 11:44:42;;;;;;;0.85;0.30;;;15.00;99.90;;;;;;5099620;28;20024;-78
2023/10/12 11:47:08;;;;;;;1.48;0.52;;;15.00;99.90;;;;;;5081681;28;20391;-78
2023/10/12 11:49:55;;;;;;;1.77;0.88;;;15.00;99.90;;;;;;5100209;28;20020;-78
2023/10/12 11:52:31;;;;;;;2.47;1.00;;;14.90;99.90;;;;;;5099000;28;20016;-78
2023/10/12 11:55:06;;;;;;;1.38;0.50;;;14.90;99.90;;;;;;5079799;28;20372;-78
2023/10/12 11:57:41;;;;;;;1.98;0.80;;;14.90;99.90;;;;;;5098504;28;20032;-78
2023/10/12 12:00:26;;;;;;;2.22;0.90;;;14.90;99.90;;;;;;5076579;28;20035;-77
2023/10/12 12:02:57;;;;;;;1.98;0.70;;;14.90;99.90;;;;;;5094139;28;20072;-77
2023/10/12 12:05:33;;;;;;;3.35;0.85;;;15.00;99.90;;;;;;5094512;28;20024;-77
2023/10/12 12:08:13;;;;;;;4.15;0.77;;;15.00;99.90;;;;;;5094679;28;20051;-77
2023/10/12 12:10:46;;;;;;;1.50;0.40;;;14.90;99.90;;;;;;5094786;28;20375;-77
2023/10/12 12:13:15;;;;;;;1.75;0.77;;;14.90;99.90;;;;;;5094280;28;20091;-77
2023/10/12 12:15:43;;;;;;;1.98;0.50;;;14.90;99.90;;;;;;5094075;28;20031;-77
2023/10/12 12:18:22;;;;;;;2.35;0.52;;;15.00;99.90;;;;;;5075796;28;20023;-77
2023/10/12 12:20:50;;;;;;;4.80;1.13;;;14.90;99.90;;;;;;5094653;28;20036;-77
2023/10/12 12:23:26;;;;;;;0.85;0.55;;;15.00;99.90;;;;;;5094127;28;20012;-77
2023/10/12 12:25:59;;;;;;;2.00;0.85;;;15.00;99.90;;;;;;5093910;28;20020;-77
2023/10/12 12:28:31;;;;;;;2.00;0.65;;;15.00;99.90;;;;;;5077293;28;20031;-78
2023/10/12 12:31:00;;;;;;;2.03;0.85;;;15.00;99.90;;;;;;5097664;28;20017;-78
2023/10/12 12:33:26;;;;;;;;;;;15.10;99.90;;;;;;5079138;28;20506;-78
2023/10/12 12:36:01;;;;;;;2.28;1.15;;;15.10;99.90;;;;;;5097254;28;19926;-78
2023/10/12 12:40:59;;;;;;;1.42;0.80;;;15.10;99.90;;;;;;5098497;28;20059;-78
2023/10/12 12:43:26;;;;;;;4.70;1.00;;;15.00;99.90;;;;;;5098232;28;20027;-78
2023/10/12 12:45:52;;;;;;;2.63;0.75;;;15.10;99.90;;;;;;5097895;28;20032;-78
2023/10/12 12:48:19;;;;;;;2.25;1.05;;;15.10;99.90;;;;;;5080109;28;20051;-78
2023/10/12 12:50:47;;;;;;;7.28;0.82;;;15.00;99.90;;;;;;5080209;28;20028;-78
2023/10/12 12:53:13;;;;;;;1.63;0.75;;;15.40;99.90;;;;;;5098506;28;20023;-78
2023/10/12 12:55:39;;;;;;;6.55;1.98;;;15.00;99.90;;;;;;5097593;28;20388;-78
2023/10/12 12:58:06;;;;;;;8.73;1.38;;;15.00;99.90;;;;;;5097764;28;20027;-78
2023/10/12 13:00:33;;;;;;;5.30;1.70;;;15.00;99.90;;;;;;5097760;28;20376;-78
2023/10/12 13:03:00;;;;;;;7.60;2.15;;;15.00;99.90;;;;;;5080465;28;20016;-78
2023/10/12 13:05:28;;;;;;;7.28;1.70;;;15.00;99.90;;;;;;5079417;28;20016;-78
2023/10/12 13:07:54;;;;;;;5.50;1.93;;;15.00;99.90;;;;;;5098437;28;20020;-78
2023/10/12 13:10:21;;;;;;;6.18;1.67;;;15.00;99.90;;;;;;5079917;28;20012;-78
2023/10/12 13:12:47;;;;;;;11.38;3.10;;;15.00;99.90;;;;;;5097750;28;20474;-78
2023/10/12 13:15:14;;;;;;;11.55;4.43;;;15.10;99.90;;;;;;5097257;28;20020;-78
2023/10/12 13:17:40;;;;;;;15.57;5.53;;;15.10;99.90;;;;;;5096645;28;20146;-78
2023/10/12 13:20:17;;;;;;;17.10;6.40;;;15.20;99.90;;;;;;5098211;28;20059;-78
2023/10/12 13:22:44;;;;;;;10.80;5.95;;;15.20;99.90;;;;;;5097627;28;20456;-78
2023/10/12 13:25:10;;;;;;;9.05;4.60;;;15.40;99.90;;;;;;5096691;28;20020;-78
2023/10/12 13:27:37;;;;;;;9.20;5.10;;;15.50;99.90;;;;;;5096377;28;20024;-78
2023/10/12 13:30:09;;;;;;;10.45;4.35;;;15.50;99.90;;;;;;5096565;28;20533;-78
2023/10/12 13:32:36;;;;;;;6.32;3.58;;;15.50;99.90;;;;;;5075614;28;20023;-76
2023/10/12 13:35:17;;;;;;;7.68;3.05;;;15.60;99.90;;;;;;5092966;28;20569;-76
2023/10/12 13:37:51;;;;;;;7.72;2.83;;;15.60;99.90;;;;;;5093258;28;20030;-76
2023/10/12 13:40:17;;;;;;;4.10;2.03;;;15.60;99.90;;;;;;5074793;28;20032;-76
2023/10/12 13:42:45;;;;;;;4.32;1.80;;;16.00;99.90;;;;;;5092875;28;20058;-77
2023/10/12 13:45:18;;;;;;;3.65;1.83;;;15.70;99.90;;;;;;5092766;28;20107;-76
2023/10/12 13:47:47;;;;;;;4.15;1.95;;;15.70;99.90;;;;;;5074801;28;20036;-76
2023/10/12 13:50:14;;;;;;;2.42;1.30;;;16.10;99.90;;;;;;5093135;28;20043;-76
2023/10/12 13:52:40;;;;;;;3.28;1.80;;;15.70;99.90;;;;;;5074646;28;20051;-76
2023/10/12 13:55:14;;;;;;;4.30;1.60;;;15.80;99.90;;;;;;5074453;28;20028;-76
2023/10/12 13:57:50;;;;;;;5.22;2.50;;;15.80;99.90;;;;;;5092760;28;20035;-76
2023/10/12 14:00:25;;;;;;;8.10;2.90;;;15.90;99.90;;;;;;5093086;28;20502;-76
2023/10/12 14:02:57;;;;;;;6.13;2.78;;;16.00;99.90;;;;;;5096500;28;20042;-77
2023/10/12 14:05:30;;;;;;;6.72;4.03;;;16.10;99.90;;;;;;5096214;28;20095;-76
2023/10/12 14:07:58;;;;;;;11.40;5.10;;;16.20;99.90;;;;;;5096395;28;20415;-77
2023/10/12 14:10:26;;;;;;;7.82;4.55;;;16.30;99.90;;;;;;5096371;28;20232;-76
2023/10/12 14:12:53;;;;;;;10.45;4.78;;;16.40;99.90;;;;;;5096802;28;20071;-76
2023/10/12 14:15:22;;;;;;;9.75;5.78;;;16.50;99.90;;;;;;5096201;28;20059;-76
2023/10/12 14:17:54;;;;;;;7.97;4.90;;;16.70;99.90;;;;;;5096145;28;20107;-76
2023/10/12 14:20:21;;;;;;;8.85;5.03;;;16.80;99.90;;;;;;5078112;28;20020;-76
2023/10/12 14:22:47;;;;;;;8.40;5.10;;;16.80;99.90;;;;;;5077827;28;20100;-76
2023/10/12 14:25:17;;;;;;;9.57;5.43;;;16.80;99.90;;;;;;5095930;28;20104;-76
2023/10/12 14:27:43;;;;;;;7.78;4.43;;;16.80;99.90;;;;;;5095984;28;20024;-76
2023/10/12 14:30:16;;;;;;;7.07;4.55;;;16.60;99.90;;;;;;5095932;28;20025;-76
2023/10/12 14:32:41;;;;;;;9.73;3.95;;;16.70;99.90;;;;;;5095827;28;20360;-76
2023/10/12 14:35:09;;;;;;;8.57;3.92;;;16.60;99.90;;;;;;5095704;28;20049;-76
2023/10/12 14:37:36;;;;;;;6.57;4.00;;;16.60;99.90;;;;;;5095854;28;20044;-76
2023/10/12 14:40:10;;;;;;;6.90;3.50;;;16.60;99.90;;;;;;5095596;28;20020;-76
2023/10/12 14:42:40;;;;;;;4.65;2.40;;;16.50;99.90;;;;;;5095783;28;20016;-76
2023/10/12 14:45:08;;;;;;;6.95;2.30;;;16.50;99.90;;;;;;5095878;28;20028;-76
2023/10/12 14:47:35;;;;;;;4.90;3.27;;;16.50;99.90;;;;;;5077371;28;20048;-76
2023/10/12 14:50:16;;;;;;;4.97;2.90;;;16.40;99.90;;;;;;5095488;28;20274;-76
2023/10/12 14:52:42;;;;;;;2.70;2.33;;;16.40;99.90;;;;;;5077941;28;20102;-76
2023/10/12 14:55:12;;;;;;;6.57;2.60;;;16.40;99.90;;;;;;5077270;28;20036;-76
2023/10/12 14:57:41;;;;;;;3.20;2.40;;;16.30;99.90;;;;;;5077086;28;20093;-76
2023/10/12 15:00:10;;;;;;;4.15;2.55;;;16.30;99.90;;;;;;5095267;28;20035;-76
2023/10/12 15:02:37;;;;;;;5.63;2.17;;;16.30;99.90;;;;;;5077107;28;20024;-76
2023/10/12 15:05:06;;;;;;;4.40;2.42;;;16.30;99.90;;;;;;5076949;28;20016;-76
2023/10/12 15:07:37;;;;;;;7.80;1.98;;;16.30;99.90;;;;;;5095287;28;20020;-77
2023/10/12 15:10:05;;;;;;;4.07;2.95;;;17.10;99.90;;;;;;5095129;28;20066;-76
2023/10/12 15:12:32;;;;;;;8.57;4.45;;;16.30;99.90;;;;;;5093970;28;20099;-76
2023/10/12 15:15:00;;;;;;;5.50;3.72;;;16.30;99.90;;;;;;5094953;28;20112;-76
2023/10/12 15:17:27;;;;;;;6.40;3.97;;;16.30;99.90;;;;;;5094924;28;20019;-76
2023/10/12 15:19:53;;;;;;;9.32;4.63;;;16.60;99.90;;;;;;5094863;28;20039;-76